Time;durP1;ratioP1;P1;durP2;ratioP2;P2;SDS_P1;SDS_P2;PMS_P1;PMS_P2;Temp;Humidity;BMP_temperature;BMP_pressure;BME280_temperature;BME280_humidity;BME280_pressure;Samples;Min_cycle;Max_cycle;Signal;HPM_P1;HPM_P2
2022/11/28 00:01:45;;;;;;;10.67;5.90;;;6.20;99.90;;;;;;5013673;28;20280;-68
2022/11/28 00:04:11;;;;;;;11.63;6.20;;;6.40;99.90;;;;;;5012575;28;20057;-68
2022/11/28 00:06:44;;;;;;;11.40;5.50;;;6.50;99.90;;;;;;5013396;28;20026;-68
2022/11/28 00:09:10;;;;;;;15.57;5.53;;;6.50;99.90;;;;;;5012535;28;20026;-68
2022/11/28 00:11:38;;;;;;;11.25;5.85;;;6.40;99.90;;;;;;5013273;28;20030;-68
2022/11/28 00:14:04;;;;;;;11.63;5.65;;;6.50;99.90;;;;;;5013988;28;20022;-68
2022/11/28 00:16:30;;;;;;;10.30;5.18;;;6.30;99.90;;;;;;5013546;28;20026;-68
2022/11/28 00:18:57;;;;;;;10.90;5.88;;;6.30;99.90;;;;;;5012443;28;20022;-68
2022/11/28 00:21:23;;;;;;;11.52;6.28;;;6.20;99.90;;;;;;5012299;28;20045;-68
2022/11/28 00:23:49;;;;;;;10.05;5.15;;;6.10;99.90;;;;;;5012585;28;20462;-68
2022/11/28 00:26:24;;;;;;;11.48;5.57;;;6.10;99.90;;;;;;5013860;28;20084;-68
2022/11/28 00:28:50;;;;;;;13.80;6.13;;;6.00;99.90;;;;;;5006344;28;20026;-68
2022/11/28 00:31:20;;;;;;;10.07;6.35;;;6.10;99.90;;;;;;4992674;28;20084;-68
2022/11/28 00:33:46;;;;;;;11.27;6.05;;;6.10;99.90;;;;;;4992562;28;20034;-68
2022/11/28 00:36:12;;;;;;;12.52;6.18;;;6.10;99.90;;;;;;4993804;28;20034;-68
2022/11/28 00:38:39;;;;;;;12.75;5.47;;;6.10;99.90;;;;;;4993859;28;20106;-68
2022/11/28 00:41:08;;;;;;;11.90;5.10;;;6.10;99.90;;;;;;4993840;28;20026;-68
2022/11/28 00:43:34;;;;;;;10.38;5.53;;;6.10;99.90;;;;;;4992974;28;20034;-68
2022/11/28 00:46:00;;;;;;;12.73;5.28;;;6.10;99.90;;;;;;4992476;28;20034;-68
2022/11/28 00:48:26;;;;;;;13.63;6.85;;;6.00;99.90;;;;;;4992874;28;20026;-68
2022/11/28 00:50:52;;;;;;;10.65;6.00;;;6.00;99.90;;;;;;4992458;28;20050;-68
2022/11/28 00:53:18;;;;;;;10.68;5.22;;;6.00;99.90;;;;;;4992857;28;20109;-68
2022/11/28 00:55:44;;;;;;;11.88;5.15;;;6.20;99.90;;;;;;4993612;28;20079;-68
2022/11/28 00:58:09;;;;;;;9.55;5.55;;;6.30;99.90;;;;;;4993672;28;20049;-68
2022/11/28 01:00:36;;;;;;;9.00;5.00;;;6.40;99.90;;;;;;4992435;28;20025;-68
2022/11/28 01:03:01;;;;;;;8.18;5.32;;;6.40;99.90;;;;;;4993603;28;20036;-68
2022/11/28 01:05:27;;;;;;;12.40;5.72;;;6.60;99.90;;;;;;4992547;28;20026;-68
2022/11/28 01:07:52;;;;;;;8.95;5.10;;;6.50;99.90;;;;;;4994204;28;20035;-68
2022/11/28 01:10:18;;;;;;;10.02;5.78;;;6.50;99.90;;;;;;4993537;28;20077;-68
2022/11/28 01:12:44;;;;;;;12.32;6.03;;;6.60;99.90;;;;;;4992243;28;20034;-68
2022/11/28 01:15:11;;;;;;;11.27;5.75;;;6.70;99.90;;;;;;4993629;28;20058;-68
2022/11/28 01:17:37;;;;;;;11.80;6.07;;;6.70;99.90;;;;;;4992278;28;20026;-68
2022/11/28 01:20:06;;;;;;;11.57;6.05;;;6.50;99.90;;;;;;4992213;28;20018;-68
2022/11/28 01:22:32;;;;;;;9.68;5.50;;;6.40;99.90;;;;;;4993602;28;20026;-68
2022/11/28 01:24:58;;;;;;;12.88;5.95;;;6.40;99.90;;;;;;4992438;28;20034;-68
2022/11/28 01:27:24;;;;;;;13.43;5.93;;;6.40;99.90;;;;;;4992515;28;20122;-68
2022/11/28 01:29:49;;;;;;;13.15;5.70;;;6.30;99.90;;;;;;4992046;28;20031;-68
2022/11/28 01:32:15;;;;;;;11.65;6.28;;;6.30;99.90;;;;;;4991998;28;20026;-68
2022/11/28 01:34:40;;;;;;;12.15;6.32;;;6.20;99.90;;;;;;4995556;28;20034;-68
2022/11/28 01:37:06;;;;;;;11.60;6.20;;;6.10;99.90;;;;;;4995608;28;20025;-68
2022/11/28 01:39:31;;;;;;;12.48;6.25;;;5.90;99.90;;;;;;4995560;28;20026;-68
2022/11/28 01:41:57;;;;;;;12.65;5.90;;;5.80;99.90;;;;;;4995360;28;20177;-68
2022/11/28 01:44:23;;;;;;;11.60;6.13;;;5.70;99.90;;;;;;4995618;28;20037;-68
2022/11/28 01:46:48;;;;;;;13.70;6.60;;;5.80;99.90;;;;;;4995417;28;20027;-68
2022/11/28 01:49:19;;;;;;;13.52;6.88;;;5.70;99.90;;;;;;4995989;28;20037;-68
2022/11/28 01:51:49;;;;;;;11.48;5.47;;;5.70;99.90;;;;;;4995652;28;20034;-68
2022/11/28 01:54:17;;;;;;;14.10;6.70;;;5.60;99.90;;;;;;4995305;28;20499;-68
2022/11/28 01:56:57;;;;;;;10.43;5.43;;;5.70;99.90;;;;;;4996031;28;20022;-68
2022/11/28 01:59:26;;;;;;;9.30;5.50;;;5.80;99.90;;;;;;4995258;28;20026;-68
2022/11/28 02:01:51;;;;;;;9.73;5.78;;;5.70;99.90;;;;;;4997016;28;20107;-68
2022/11/28 02:04:17;;;;;;;13.05;6.18;;;5.80;99.90;;;;;;4996698;28;20026;-68
2022/11/28 02:06:43;;;;;;;13.43;6.30;;;5.70;99.90;;;;;;4995029;28;20030;-68
2022/11/28 02:09:11;;;;;;;12.38;6.70;;;5.70;99.90;;;;;;4996271;28;20057;-68
2022/11/28 02:11:37;;;;;;;16.48;6.47;;;5.70;99.90;;;;;;4995251;28;20165;-68
2022/11/28 02:14:05;;;;;;;14.40;5.93;;;5.70;99.90;;;;;;4994952;28;20095;-68
2022/11/28 02:16:31;;;;;;;12.57;5.80;;;5.60;99.90;;;;;;4994837;28;20109;-68
2022/11/28 02:19:33;;;;;;;11.98;6.15;;;5.70;99.90;;;;;;4996433;28;20538;-68
2022/11/28 02:22:20;;;;;;;13.32;6.18;;;5.70;99.90;;;;;;4995983;28;20045;-68
2022/11/28 02:25:12;;;;;;;14.45;6.05;;;5.60;99.90;;;;;;4996336;28;20082;-68
2022/11/28 02:28:01;;;;;;;12.50;6.43;;;5.60;99.90;;;;;;4994738;28;20080;-68
2022/11/28 02:30:59;;;;;;;14.73;5.70;;;5.70;99.90;;;;;;4994717;28;20026;-68
2022/11/28 02:33:39;;;;;;;14.43;5.95;;;5.90;99.90;;;;;;4994589;28;20027;-68
2022/11/28 02:36:16;;;;;;;13.32;6.93;;;6.00;99.90;;;;;;4995620;28;20110;-68
2022/11/28 02:39:07;;;;;;;19.77;6.50;;;6.00;99.90;;;;;;4995813;28;20105;-68
2022/11/28 02:41:53;;;;;;;15.20;7.03;;;6.00;99.90;;;;;;4995854;28;20528;-68
2022/11/28 02:44:41;;;;;;;18.08;6.88;;;5.90;99.90;;;;;;4993390;28;20963;-68
2022/11/28 02:47:30;;;;;;;13.00;6.57;;;5.70;99.90;;;;;;4994287;28;20030;-68
2022/11/28 02:50:08;;;;;;;16.40;7.60;;;5.80;99.90;;;;;;4994364;28;20031;-68
2022/11/28 02:52:39;;;;;;;12.63;6.70;;;5.90;99.90;;;;;;4994445;28;20033;-68
2022/11/28 02:55:07;;;;;;;15.47;6.83;;;6.10;99.90;;;;;;4994146;28;20053;-68
2022/11/28 02:57:47;;;;;;;12.70;6.50;;;6.20;99.90;;;;;;4994112;28;20505;-68
2022/11/28 03:00:29;;;;;;;14.90;7.47;;;6.10;99.90;;;;;;4994934;28;20041;-68
2022/11/28 03:03:13;;;;;;;;;;;6.00;99.90;;;;;;4995573;28;20026;-68
2022/11/28 03:06:01;;;;;;;13.13;6.45;;;6.00;99.90;;;;;;4995481;28;19913;-68
2022/11/28 03:09:05;;;;;;;13.63;7.18;;;6.00;99.90;;;;;;4994020;28;20037;-68
2022/11/28 03:12:07;;;;;;;11.00;6.10;;;6.20;99.90;;;;;;4962139;28;20045;-68
2022/11/28 03:14:58;;;;;;;13.35;6.30;;;6.30;99.90;;;;;;4994996;28;20034;-68
2022/11/28 03:17:33;;;;;;;16.02;6.82;;;6.20;99.90;;;;;;4995020;28;20044;-68
2022/11/28 03:20:25;;;;;;;13.98;6.43;;;6.10;99.90;;;;;;4993713;28;20026;-68
2022/11/28 03:23:05;;;;;;;15.40;6.53;;;6.10;99.90;;;;;;4993715;28;20050;-68
2022/11/28 03:25:34;;;;;;;15.18;7.43;;;5.90;99.90;;;;;;4993631;28;20057;-68
2022/11/28 03:28:05;;;;;;;14.52;6.80;;;5.90;99.90;;;;;;4993841;28;20026;-68
2022/11/28 03:30:38;;;;;;;13.98;7.18;;;5.80;99.90;;;;;;4993433;28;20125;-68
2022/11/28 03:33:05;;;;;;;16.23;7.40;;;6.00;99.90;;;;;;4994253;28;20111;-68
2022/11/28 03:35:36;;;;;;;12.60;7.03;;;6.10;99.90;;;;;;4993647;28;20030;-68
2022/11/28 03:38:11;;;;;;;11.85;6.53;;;6.10;99.90;;;;;;4993927;28;20019;-68
2022/11/28 03:40:46;;;;;;;13.32;7.00;;;6.00;99.90;;;;;;4994899;28;20022;-68
2022/11/28 03:43:16;;;;;;;14.95;7.38;;;6.00;99.90;;;;;;4993473;28;20040;-68
2022/11/28 03:45:47;;;;;;;17.33;7.10;;;6.00;99.90;;;;;;4994168;28;20034;-68
2022/11/28 03:48:22;;;;;;;15.68;7.32;;;5.80;99.90;;;;;;4994867;28;20058;-68
2022/11/28 03:50:56;;;;;;;14.13;6.85;;;5.70;99.90;;;;;;4993842;28;20040;-68
2022/11/28 03:53:27;;;;;;;15.80;7.40;;;5.50;99.90;;;;;;4993130;28;20089;-68
2022/11/28 03:56:03;;;;;;;13.43;7.50;;;5.50;99.90;;;;;;4992858;28;20033;-68
2022/11/28 03:59:04;;;;;;;13.20;7.13;;;5.60;99.90;;;;;;4993916;28;20019;-68
2022/11/28 04:01:46;;;;;;;15.57;7.90;;;5.70;99.90;;;;;;4918470;29;20035;-68
2022/11/28 04:04:44;;;;;;;12.30;6.85;;;5.70;99.90;;;;;;4934381;29;20044;-68
2022/11/28 04:07:18;;;;;;;14.15;7.38;;;5.70;99.90;;;;;;4933868;29;20046;-68
2022/11/28 04:10:00;;;;;;;12.32;7.05;;;5.70;99.90;;;;;;4919197;29;20027;-68
2022/11/28 04:12:26;;;;;;;;;;;5.70;99.90;;;;;;4918881;29;20032;-68
2022/11/28 04:15:18;;;;;;;16.25;7.00;;;5.80;99.90;;;;;;4934181;29;19911;-68
2022/11/28 04:18:12;;;;;;;13.52;7.00;;;5.90;99.90;;;;;;4918412;29;20036;-68
2022/11/28 04:20:57;;;;;;;18.55;7.18;;;5.60;99.90;;;;;;4918371;29;20031;-68
2022/11/28 04:23:24;;;;;;;14.32;6.90;;;5.70;99.90;;;;;;4934385;29;20040;-68
2022/11/28 04:25:57;;;;;;;13.82;7.35;;;5.70;99.90;;;;;;4934175;29;20032;-68
2022/11/28 04:28:28;;;;;;;14.93;7.53;;;5.60;99.90;;;;;;4934126;29;20118;-68
2022/11/28 04:30:57;;;;;;;13.70;7.07;;;5.70;99.90;;;;;;4934530;29;20035;-68
2022/11/28 04:33:24;;;;;;;13.73;6.82;;;5.70;99.90;;;;;;4918057;29;20063;-68
2022/11/28 04:35:52;;;;;;;18.33;7.88;;;5.70;99.90;;;;;;4918098;29;20032;-68
2022/11/28 04:38:20;;;;;;;13.38;6.40;;;5.70;99.90;;;;;;4992580;28;20019;-68
2022/11/28 04:40:54;;;;;;;14.35;7.35;;;5.80;99.90;;;;;;4993801;28;20023;-68
2022/11/28 04:43:26;;;;;;;14.82;7.30;;;5.90;99.90;;;;;;4994074;28;20038;-68
2022/11/28 04:46:00;;;;;;;;;;;5.70;99.90;;;;;;4994302;28;20042;-68
2022/11/28 04:48:26;;;;;;;13.90;6.93;;;5.60;99.90;;;;;;4993973;28;19956;-68
2022/11/28 04:51:15;;;;;;;19.92;7.78;;;5.60;99.90;;;;;;4994077;28;20031;-68
2022/11/28 04:53:51;;;;;;;14.40;7.15;;;5.70;99.90;;;;;;4993405;28;20029;-68
2022/11/28 04:56:21;;;;;;;14.02;6.95;;;5.60;99.90;;;;;;4992408;28;20117;-68
2022/11/28 04:58:49;;;;;;;14.15;7.05;;;5.60;99.90;;;;;;4992382;28;20022;-68
2022/11/28 05:01:20;;;;;;;15.43;7.05;;;5.70;99.90;;;;;;4992391;28;20086;-68
2022/11/28 05:03:46;;;;;;;14.48;6.70;;;6.00;99.90;;;;;;4992441;28;20104;-68
2022/11/28 05:06:23;;;;;;;17.33;7.95;;;6.20;99.90;;;;;;4993540;28;20066;-68
2022/11/28 05:08:48;;;;;;;15.23;7.25;;;6.30;99.90;;;;;;4996270;28;20035;-68
2022/11/28 05:11:14;;;;;;;16.77;8.02;;;6.40;99.90;;;;;;4997643;28;20033;-68
2022/11/28 05:13:39;;;;;;;12.88;7.18;;;6.50;99.90;;;;;;4997256;28;20050;-68
2022/11/28 05:16:05;;;;;;;16.15;8.07;;;6.50;99.90;;;;;;4997858;28;20098;-68
2022/11/28 05:18:31;;;;;;;17.80;8.23;;;6.60;99.90;;;;;;4995972;28;20034;-68
2022/11/28 05:21:00;;;;;;;14.52;7.00;;;6.60;99.90;;;;;;4996520;28;20054;-68
2022/11/28 05:23:26;;;;;;;14.18;7.20;;;6.50;99.90;;;;;;4995872;28;20026;-68
2022/11/28 05:25:51;;;;;;;15.77;6.97;;;6.50;99.90;;;;;;4995834;28;20026;-68
2022/11/28 05:28:17;;;;;;;15.02;7.57;;;6.30;99.90;;;;;;4997260;28;20026;-68
2022/11/28 05:30:42;;;;;;;14.25;7.93;;;6.40;99.90;;;;;;4995773;28;20026;-68
2022/11/28 05:33:08;;;;;;;20.88;8.80;;;6.30;99.90;;;;;;4995628;28;20038;-68
2022/11/28 05:35:33;;;;;;;18.45;8.05;;;6.20;99.90;;;;;;4995605;28;20029;-68
2022/11/28 05:37:59;;;;;;;17.23;8.20;;;6.10;99.90;;;;;;4995702;28;20040;-68
2022/11/28 05:40:24;;;;;;;19.10;8.48;;;5.80;99.90;;;;;;4996811;28;20033;-68
2022/11/28 05:42:50;;;;;;;15.80;8.13;;;5.80;99.90;;;;;;4996632;28;20061;-68
2022/11/28 05:45:15;;;;;;;19.13;8.35;;;5.70;99.90;;;;;;4996823;28;20030;-68
2022/11/28 05:47:41;;;;;;;18.38;8.00;;;5.60;99.90;;;;;;4995778;28;20057;-68
2022/11/28 05:50:07;;;;;;;16.73;8.00;;;5.70;99.90;;;;;;4997203;28;20497;-68
2022/11/28 05:52:32;;;;;;;15.77;7.63;;;5.90;99.90;;;;;;4995594;28;20030;-68
2022/11/28 05:54:59;;;;;;;16.55;7.82;;;6.00;99.90;;;;;;4996615;28;20030;-68
2022/11/28 05:57:24;;;;;;;15.45;7.68;;;6.10;99.90;;;;;;4995201;28;20030;-68
2022/11/28 05:59:50;;;;;;;18.25;9.52;;;6.10;99.90;;;;;;4996439;28;20023;-68
2022/11/28 06:02:16;;;;;;;17.58;8.23;;;6.20;99.90;;;;;;4995078;28;20061;-68
2022/11/28 06:04:41;;;;;;;15.48;8.15;;;6.30;99.90;;;;;;4996210;28;20113;-68
2022/11/28 06:07:07;;;;;;;17.23;8.15;;;6.30;99.90;;;;;;4995105;28;20114;-68
2022/11/28 06:09:33;;;;;;;20.27;9.73;;;6.30;99.90;;;;;;4995413;28;20026;-68
2022/11/28 06:11:58;;;;;;;15.93;7.82;;;6.30;99.90;;;;;;4994948;28;20022;-68
2022/11/28 06:14:24;;;;;;;16.77;8.70;;;6.40;99.90;;;;;;4995017;28;20024;-68
2022/11/28 06:16:50;;;;;;;18.33;9.32;;;6.40;99.90;;;;;;4995297;28;20037;-68
2022/11/28 06:19:15;;;;;;;17.55;9.48;;;6.40;99.90;;;;;;4995953;28;20029;-68
2022/11/28 06:21:41;;;;;;;22.60;8.95;;;6.20;99.90;;;;;;4996036;28;20076;-68
2022/11/28 06:24:08;;;;;;;19.52;8.95;;;6.20;99.90;;;;;;4996292;28;20093;-68
2022/11/28 06:26:34;;;;;;;20.80;8.65;;;6.20;99.90;;;;;;4996052;28;20107;-68
2022/11/28 06:28:59;;;;;;;18.02;8.88;;;6.00;99.90;;;;;;4996206;28;20022;-68
2022/11/28 06:31:27;;;;;;;16.67;9.00;;;5.70;99.90;;;;;;4994654;28;20022;-68
2022/11/28 06:33:53;;;;;;;18.83;8.63;;;5.70;99.90;;;;;;4994484;28;20050;-68
2022/11/28 06:36:19;;;;;;;21.85;9.68;;;5.70;99.90;;;;;;4994486;28;20050;-68
2022/11/28 06:38:45;;;;;;;20.17;9.10;;;5.80;99.90;;;;;;4996121;28;20093;-68
2022/11/28 06:41:13;;;;;;;19.40;9.73;;;5.80;99.90;;;;;;4994711;28;20042;-68
2022/11/28 06:43:39;;;;;;;19.45;9.55;;;5.60;99.90;;;;;;4995167;28;20040;-68
2022/11/28 06:46:05;;;;;;;21.30;10.45;;;5.60;99.90;;;;;;4995202;28;20121;-68
2022/11/28 06:48:31;;;;;;;21.75;9.45;;;5.70;99.90;;;;;;4995998;28;20030;-68
2022/11/28 06:51:05;;;;;;;20.00;9.77;;;5.70;99.90;;;;;;4994403;28;20030;-68
2022/11/28 06:53:31;;;;;;;17.73;9.00;;;5.70;99.90;;;;;;4995371;28;20524;-68
2022/11/28 06:55:57;;;;;;;22.40;9.70;;;5.60;99.90;;;;;;4995419;28;20029;-68
2022/11/28 06:58:22;;;;;;;20.58;9.18;;;5.70;99.90;;;;;;4995377;28;20022;-68
2022/11/28 07:00:48;;;;;;;23.23;11.05;;;5.80;99.90;;;;;;4994522;28;20050;-68
2022/11/28 07:03:13;;;;;;;18.98;8.85;;;5.60;99.90;;;;;;4994102;28;20030;-68
2022/11/28 07:05:39;;;;;;;19.77;9.02;;;5.70;99.90;;;;;;4994855;28;20076;-68
2022/11/28 07:08:05;;;;;;;21.10;9.32;;;5.70;99.90;;;;;;4995719;28;20140;-68
2022/11/28 07:10:30;;;;;;;20.13;9.68;;;5.80;99.90;;;;;;4994262;28;20022;-68
2022/11/28 07:12:58;;;;;;;23.15;10.80;;;5.90;99.90;;;;;;4993864;28;20117;-68
2022/11/28 07:15:24;;;;;;;20.70;9.75;;;5.80;99.90;;;;;;4993870;28;20084;-68
2022/11/28 07:17:50;;;;;;;21.17;10.05;;;5.70;99.90;;;;;;4994150;28;20054;-68
2022/11/28 07:20:16;;;;;;;21.50;10.60;;;5.60;99.90;;;;;;4995023;28;20023;-68
2022/11/28 07:22:42;;;;;;;23.42;9.93;;;5.40;99.90;;;;;;4993594;28;20049;-68
2022/11/28 07:25:09;;;;;;;21.92;10.60;;;5.40;99.90;;;;;;4994484;28;20026;-68
2022/11/28 07:27:35;;;;;;;22.13;10.25;;;5.40;99.90;;;;;;4994277;28;20040;-68
2022/11/28 07:30:01;;;;;;;27.05;11.48;;;5.40;99.90;;;;;;4994222;28;20125;-68
2022/11/28 07:32:26;;;;;;;20.38;10.70;;;5.30;99.90;;;;;;4993274;28;20037;-68
2022/11/28 07:34:52;;;;;;;20.35;9.63;;;5.50;99.90;;;;;;4994703;28;20026;-68
2022/11/28 07:37:18;;;;;;;22.80;10.48;;;5.50;99.90;;;;;;4993558;28;20088;-68
2022/11/28 07:39:43;;;;;;;23.05;10.60;;;5.70;99.90;;;;;;4993411;28;20019;-68
2022/11/28 07:42:10;;;;;;;21.40;10.38;;;5.70;99.90;;;;;;4993075;28;20049;-68
2022/11/28 07:44:35;;;;;;;18.58;9.38;;;5.80;99.90;;;;;;4994490;28;20033;-69
2022/11/28 07:47:01;;;;;;;23.00;10.75;;;5.80;99.90;;;;;;4993562;28;20030;-68
2022/11/28 07:49:27;;;;;;;23.58;10.48;;;5.70;99.90;;;;;;4993777;28;20113;-68
2022/11/28 07:51:52;;;;;;;20.42;10.05;;;5.70;99.90;;;;;;4994497;28;20026;-68
2022/11/28 07:54:18;;;;;;;23.00;10.80;;;5.70;99.90;;;;;;4994179;28;20557;-68
2022/11/28 07:56:44;;;;;;;26.90;10.80;;;5.50;99.90;;;;;;4993986;28;20030;-68
2022/11/28 07:59:09;;;;;;;25.30;10.55;;;5.50;99.90;;;;;;4993119;28;20023;-68
2022/11/28 08:01:35;;;;;;;24.90;10.73;;;5.60;99.90;;;;;;4993878;28;20029;-69
2022/11/28 08:04:03;;;;;;;21.83;9.15;;;5.50;99.90;;;;;;4993366;28;20054;-68
2022/11/28 08:06:29;;;;;;;24.67;10.45;;;5.70;99.90;;;;;;4994226;28;20072;-68
2022/11/28 08:08:56;;;;;;;21.75;10.10;;;5.80;99.90;;;;;;4994460;28;20031;-68
2022/11/28 08:11:23;;;;;;;23.38;10.95;;;6.00;99.90;;;;;;4993067;28;20037;-68
2022/11/28 08:13:50;;;;;;;20.60;10.00;;;5.90;99.90;;;;;;4994181;28;20064;-68
2022/11/28 08:16:19;;;;;;;23.25;11.02;;;6.00;99.90;;;;;;4993798;28;20030;-68
2022/11/28 08:18:46;;;;;;;25.85;11.98;;;6.00;99.90;;;;;;4994299;28;20022;-68
2022/11/28 08:21:15;;;;;;;21.30;10.18;;;6.20;99.90;;;;;;4994254;28;20493;-68
2022/11/28 08:23:42;;;;;;;24.50;11.07;;;6.10;99.90;;;;;;4993025;28;20022;-68
2022/11/28 08:26:12;;;;;;;19.35;10.25;;;6.00;99.90;;;;;;4994013;28;20022;-68
2022/11/28 08:28:37;;;;;;;26.60;11.20;;;5.90;99.90;;;;;;4994238;28;20057;-68
2022/11/28 08:31:10;;;;;;;22.17;10.90;;;5.90;99.90;;;;;;4994239;28;20062;-68
2022/11/28 08:33:36;;;;;;;26.42;12.10;;;5.90;99.90;;;;;;4992919;28;20108;-68
2022/11/28 08:36:10;;;;;;;23.52;10.50;;;6.10;99.90;;;;;;4994098;28;20033;-67
2022/11/28 08:38:36;;;;;;;28.52;11.13;;;6.10;99.90;;;;;;4992597;28;20046;-67
2022/11/28 08:41:11;;;;;;;21.23;10.38;;;6.20;99.90;;;;;;4992655;28;20045;-68
2022/11/28 08:43:38;;;;;;;25.95;10.75;;;6.40;99.90;;;;;;4994643;28;20034;-68
2022/11/28 08:46:05;;;;;;;23.58;10.77;;;6.30;99.90;;;;;;4996597;28;20061;-67
2022/11/28 08:48:31;;;;;;;20.70;9.88;;;6.20;99.90;;;;;;4997824;28;20494;-67
2022/11/28 08:50:57;;;;;;;28.65;10.77;;;6.30;99.90;;;;;;4998047;28;20023;-68
2022/11/28 08:53:23;;;;;;;24.60;11.18;;;6.40;99.90;;;;;;4997733;28;20042;-68
2022/11/28 08:55:49;;;;;;;23.10;10.70;;;6.20;99.90;;;;;;4996373;28;20033;-68
2022/11/28 08:58:14;;;;;;;24.73;11.23;;;6.10;99.90;;;;;;4996351;28;20025;-68
2022/11/28 09:00:43;;;;;;;23.52;10.40;;;6.20;99.90;;;;;;4997629;28;20072;-67
2022/11/28 09:03:14;;;;;;;23.88;11.35;;;6.20;99.90;;;;;;4996619;28;20470;-68
2022/11/28 09:05:41;;;;;;;25.35;11.10;;;6.20;99.90;;;;;;4997449;28;20023;-68
2022/11/28 09:08:07;;;;;;;24.20;10.65;;;6.20;99.90;;;;;;4996185;28;20050;-68
2022/11/28 09:10:35;;;;;;;22.40;10.52;;;6.20;99.90;;;;;;4997680;28;20072;-68
2022/11/28 09:13:01;;;;;;;21.50;10.20;;;6.20;99.90;;;;;;4997295;28;20026;-67
2022/11/28 09:15:26;;;;;;;25.40;10.50;;;6.10;99.90;;;;;;4996332;28;20056;-68
2022/11/28 09:17:52;;;;;;;23.42;10.23;;;6.10;99.90;;;;;;4996018;28;20026;-68
2022/11/28 09:20:19;;;;;;;21.02;9.82;;;6.10;99.90;;;;;;4997772;28;20062;-68
2022/11/28 09:22:46;;;;;;;22.08;10.05;;;6.10;99.90;;;;;;4997283;28;20023;-68
2022/11/28 09:25:12;;;;;;;19.08;9.77;;;6.30;99.90;;;;;;4996238;28;20041;-68
2022/11/28 09:27:37;;;;;;;20.20;9.43;;;6.40;99.90;;;;;;4995888;28;20121;-68
2022/11/28 09:30:04;;;;;;;21.50;9.93;;;6.50;99.90;;;;;;4997382;28;20069;-67
2022/11/28 09:32:30;;;;;;;20.27;9.18;;;6.50;99.90;;;;;;4997170;28;20474;-68
2022/11/28 09:34:56;;;;;;;19.80;9.10;;;6.40;99.90;;;;;;4995618;28;20023;-67
2022/11/28 09:37:21;;;;;;;25.05;10.90;;;6.20;99.90;;;;;;4997198;28;20018;-67
2022/11/28 09:39:47;;;;;;;20.05;8.23;;;6.10;99.90;;;;;;4996943;28;20026;-67
2022/11/28 09:42:25;;;;;;;20.73;8.75;;;6.20;99.90;;;;;;4996817;28;20077;-67
2022/11/28 09:44:54;;;;;;;20.25;8.35;;;6.20;99.90;;;;;;4997164;28;20101;-67
2022/11/28 09:47:24;;;;;;;24.08;9.80;;;6.30;99.90;;;;;;4996773;28;20030;-67
2022/11/28 09:49:57;;;;;;;18.05;8.80;;;6.10;99.90;;;;;;4996822;28;20022;-68
2022/11/28 09:52:35;;;;;;;20.40;8.73;;;6.20;99.90;;;;;;4996223;28;20030;-67
2022/11/28 09:55:38;;;;;;;15.18;8.20;;;6.40;99.90;;;;;;4996373;28;20026;-67
2022/11/28 09:58:14;;;;;;;19.38;9.05;;;6.70;99.90;;;;;;4996581;28;20018;-67
2022/11/28 10:01:14;;;;;;;23.40;9.30;;;6.80;99.90;;;;;;4996723;28;20030;-67
2022/11/28 10:04:03;;;;;;;23.73;9.05;;;6.50;99.90;;;;;;4963732;28;20119;-67
2022/11/28 10:06:37;;;;;;;18.25;8.43;;;6.30;99.90;;;;;;4996999;28;20105;-67
2022/11/28 10:09:35;;;;;;;20.63;8.57;;;6.40;99.90;;;;;;4996739;28;20027;-67
2022/11/28 10:12:28;;;;;;;19.58;7.25;;;6.60;99.90;;;;;;4989380;28;20034;-67
2022/11/28 10:15:09;;;;;;;16.85;7.68;;;6.70;99.90;;;;;;4995597;28;20090;-67
2022/11/28 10:17:50;;;;;;;16.55;8.15;;;6.80;99.90;;;;;;4995288;28;20057;-67
2022/11/28 10:20:32;;;;;;;19.63;8.55;;;7.00;99.90;;;;;;4995135;28;20549;-67
2022/11/28 10:23:12;;;;;;;15.88;8.00;;;7.10;99.90;;;;;;4996794;28;20077;-67
2022/11/28 10:25:44;;;;;;;22.20;9.43;;;6.80;99.90;;;;;;4996580;28;20026;-68
2022/11/28 10:28:14;;;;;;;;;;;6.70;99.90;;;;;;4996768;28;20065;-68
2022/11/28 10:30:44;;;;;;;17.17;8.02;;;6.80;99.90;;;;;;4995344;28;19905;-68
2022/11/28 10:33:25;;;;;;;15.15;8.05;;;6.90;99.90;;;;;;4995904;28;20046;-68
2022/11/28 10:35:57;;;;;;;18.73;8.30;;;7.10;99.90;;;;;;4995457;28;20030;-68
2022/11/28 10:38:26;;;;;;;21.08;8.98;;;7.00;99.90;;;;;;4994579;28;20022;-68
2022/11/28 10:41:10;;;;;;;20.13;8.38;;;6.80;99.90;;;;;;4995830;28;20019;-68
2022/11/28 10:44:01;;;;;;;21.40;9.20;;;6.80;99.90;;;;;;4994950;28;20041;-69
2022/11/28 10:46:39;;;;;;;17.92;8.43;;;6.90;99.90;;;;;;4995238;28;20101;-69
2022/11/28 10:49:25;;;;;;;20.92;9.63;;;6.60;99.90;;;;;;4995634;28;20030;-70
2022/11/28 10:52:11;;;;;;;19.17;8.13;;;6.50;99.90;;;;;;4997860;28;20030;-69
2022/11/28 10:54:49;;;;;;;17.65;8.45;;;6.80;99.90;;;;;;5015330;28;20026;-70
2022/11/28 10:57:16;;;;;;;17.90;8.50;;;7.00;99.90;;;;;;5014002;28;20040;-70
2022/11/28 11:00:05;;;;;;;17.20;7.72;;;6.90;99.90;;;;;;5015289;28;20590;-69
2022/11/28 11:02:45;;;;;;;18.90;8.57;;;7.00;99.90;;;;;;5014527;28;20018;-69
2022/11/28 11:05:17;;;;;;;19.40;8.43;;;7.00;99.90;;;;;;5013697;28;20038;-69
2022/11/28 11:08:04;;;;;;;21.08;8.82;;;7.00;99.90;;;;;;5013652;28;20124;-69
2022/11/28 11:10:40;;;;;;;18.73;8.13;;;7.10;99.90;;;;;;5014448;28;20030;-69
2022/11/28 11:13:27;;;;;;;26.88;8.25;;;7.30;99.90;;;;;;5013447;28;20125;-69
2022/11/28 11:16:02;;;;;;;20.80;9.07;;;7.40;99.90;;;;;;5014971;28;20079;-69
2022/11/28 11:18:34;;;;;;;19.88;9.68;;;7.20;99.90;;;;;;5014606;28;20108;-69
2022/11/28 11:21:26;;;;;;;16.35;7.85;;;7.30;99.90;;;;;;5014599;28;20033;-69
2022/11/28 11:24:14;;;;;;;19.60;9.30;;;7.20;99.90;;;;;;5014470;28;20117;-69
2022/11/28 11:26:43;;;;;;;17.50;8.13;;;7.30;99.90;;;;;;5014531;28;20030;-70
2022/11/28 11:29:21;;;;;;;24.30;9.63;;;7.30;99.90;;;;;;5013246;28;20080;-69
2022/11/28 11:31:52;;;;;;;20.95;9.10;;;7.40;99.90;;;;;;5013204;28;20075;-69
2022/11/28 11:34:20;;;;;;;22.05;9.95;;;7.20;99.90;;;;;;5013979;28;20060;-69
2022/11/28 11:36:46;;;;;;;23.25;9.50;;;7.00;99.90;;;;;;5012949;28;20026;-69
2022/11/28 11:39:11;;;;;;;19.60;9.75;;;6.90;99.90;;;;;;5013022;28;20049;-69
2022/11/28 11:41:42;;;;;;;21.15;9.35;;;7.00;99.90;;;;;;5014379;28;20061;-69
2022/11/28 11:44:13;;;;;;;23.10;9.97;;;7.10;99.90;;;;;;5014301;28;20434;-69
2022/11/28 11:46:57;;;;;;;18.75;9.00;;;7.00;99.90;;;;;;5013209;28;20030;-69
2022/11/28 11:49:41;;;;;;;23.25;9.80;;;7.00;99.90;;;;;;5013150;28;20091;-69
2022/11/28 11:52:25;;;;;;;27.30;9.75;;;7.10;99.90;;;;;;5013659;28;20030;-69
2022/11/28 11:55:02;;;;;;;21.33;9.75;;;7.30;99.90;;;;;;5013304;28;20033;-70
2022/11/28 11:57:37;;;;;;;22.23;10.75;;;7.30;99.90;;;;;;5012858;28;20026;-69
2022/11/28 12:00:12;;;;;;;23.27;10.52;;;7.40;99.90;;;;;;5012744;28;20508;-69
2022/11/28 12:03:01;;;;;;;22.35;9.63;;;7.10;99.90;;;;;;5014138;28;20022;-69
2022/11/28 12:05:33;;;;;;;20.63;8.85;;;7.20;99.90;;;;;;5013961;28;20036;-69
2022/11/28 12:08:14;;;;;;;17.92;9.27;;;7.30;99.90;;;;;;5013854;28;20105;-69
2022/11/28 12:10:45;;;;;;;22.83;10.18;;;7.50;99.90;;;;;;5013780;28;20557;-69
2022/11/28 12:13:22;;;;;;;19.80;9.40;;;7.40;99.90;;;;;;5014021;28;20034;-69
2022/11/28 12:16:03;;;;;;;20.75;10.20;;;7.30;99.90;;;;;;5012410;28;20030;-69
2022/11/28 12:18:59;;;;;;;22.55;9.30;;;6.90;99.90;;;;;;5012209;28;20018;-69
2022/11/28 12:21:39;;;;;;;18.55;9.55;;;7.00;99.90;;;;;;5012472;28;20022;-69
2022/11/28 12:24:20;;;;;;;18.38;8.52;;;7.00;99.90;;;;;;5013222;28;20024;-69
2022/11/28 12:26:57;;;;;;;20.05;9.27;;;6.90;99.90;;;;;;5012419;28;20030;-69
2022/11/28 12:29:41;;;;;;;21.88;9.45;;;7.00;99.90;;;;;;5013871;28;20037;-69
2022/11/28 12:32:25;;;;;;;18.88;9.63;;;6.90;99.90;;;;;;5012177;28;20030;-69
2022/11/28 12:34:57;;;;;;;20.83;9.63;;;6.90;99.90;;;;;;5012329;28;20057;-69
2022/11/28 12:37:41;;;;;;;25.23;10.52;;;6.80;99.90;;;;;;5013082;28;20022;-69
2022/11/28 12:40:20;;;;;;;26.10;11.32;;;6.80;99.90;;;;;;5013678;28;20053;-69
2022/11/28 12:43:18;;;;;;;21.45;10.38;;;6.90;99.90;;;;;;5013259;28;20030;-69
2022/11/28 12:45:52;;;;;;;23.55;9.88;;;7.00;99.90;;;;;;5013003;28;20029;-69
2022/11/28 12:48:48;;;;;;;21.85;9.75;;;7.00;99.90;;;;;;5013399;28;20026;-69
2022/11/28 12:51:38;;;;;;;24.77;9.93;;;7.00;99.90;;;;;;5012063;28;20030;-69
2022/11/28 12:54:27;;;;;;;20.75;9.48;;;7.00;99.90;;;;;;5012628;28;20057;-69
2022/11/28 12:57:04;;;;;;;24.38;10.25;;;7.10;99.90;;;;;;5012355;28;20054;-69
2022/11/28 12:59:51;;;;;;;28.80;11.18;;;7.00;99.90;;;;;;5013520;28;20394;-69
2022/11/28 13:02:28;;;;;;;21.83;9.65;;;6.90;99.90;;;;;;5013050;28;20115;-69
2022/11/28 13:05:11;;;;;;;23.52;10.27;;;6.80;99.90;;;;;;5012220;28;20022;-69
2022/11/28 13:07:55;;;;;;;25.77;10.63;;;6.80;99.90;;;;;;5013235;28;20018;-69
2022/11/28 13:10:51;;;;;;;21.77;11.10;;;6.80;99.90;;;;;;5013538;28;20030;-68
2022/11/28 13:13:23;;;;;;;18.77;9.50;;;6.90;99.90;;;;;;5013308;28;20025;-68